Time;durP1;ratioP1;P1;durP2;ratioP2;P2;SDS_P1;SDS_P2;PMS_P1;PMS_P2;Temp;Humidity;BMP_temperature;BMP_pressure;BME280_temperature;BME280_humidity;BME280_pressure;Samples;Min_cycle;Max_cycle;Signal;HPM_P1;HPM_P2
2022/09/19 00:01:13;;;;;;;4.97;2.00;;;11.80;99.90;;;;;;5033597;28;20084;-75
2022/09/19 00:03:45;;;;;;;9.45;1.95;;;11.80;99.90;;;;;;5032825;28;20061;-76
2022/09/19 00:06:14;;;;;;;12.52;2.65;;;11.80;99.90;;;;;;5037627;28;20053;-74
2022/09/19 00:08:42;;;;;;;8.95;2.38;;;11.90;99.90;;;;;;5040409;28;20459;-75
2022/09/19 00:11:09;;;;;;;4.47;2.28;;;11.90;99.90;;;;;;5039858;28;20049;-76
2022/09/19 00:13:37;;;;;;;4.43;1.92;;;11.90;99.90;;;;;;5041810;28;20053;-75
2022/09/19 00:16:03;;;;;;;6.55;2.00;;;11.90;99.90;;;;;;5039167;28;20045;-75
2022/09/19 00:18:29;;;;;;;5.65;1.98;;;11.90;99.90;;;;;;5041607;28;20041;-75
2022/09/19 00:20:55;;;;;;;5.78;2.20;;;11.90;99.90;;;;;;5038894;28;20174;-75
2022/09/19 00:26:09;;;;;;;7.03;2.05;;;11.90;99.90;;;;;;5040646;28;20060;-76
2022/09/19 00:28:36;;;;;;;12.50;2.70;;;11.90;99.90;;;;;;5039374;28;20048;-76
2022/09/19 00:31:02;;;;;;;7.25;1.92;;;11.90;99.90;;;;;;5030994;28;20053;-74
2022/09/19 00:33:30;;;;;;;9.18;2.20;;;12.00;99.90;;;;;;5037700;28;20041;-75
2022/09/19 00:36:03;;;;;;;6.47;2.65;;;12.00;99.90;;;;;;5040322;28;20099;-75
2022/09/19 00:38:30;;;;;;;8.75;1.65;;;12.00;99.90;;;;;;5038718;28;20458;-75
2022/09/19 00:40:57;;;;;;;7.05;1.77;;;12.00;99.90;;;;;;5040618;28;20052;-76
2022/09/19 00:43:25;;;;;;;8.23;2.53;;;12.00;99.90;;;;;;5038093;28;20049;-76
2022/09/19 00:45:52;;;;;;;8.27;2.38;;;12.00;99.90;;;;;;5039626;28;20489;-75
2022/09/19 00:48:21;;;;;;;5.13;1.90;;;12.00;99.90;;;;;;5041141;28;20067;-76
2022/09/19 00:50:52;;;;;;;4.60;2.00;;;12.00;99.90;;;;;;5040718;28;20858;-75
2022/09/19 00:53:22;;;;;;;5.72;2.08;;;12.00;99.90;;;;;;5028161;28;20821;-76
2022/09/19 00:55:54;;;;;;;5.00;2.75;;;12.00;99.90;;;;;;5040271;28;20523;-76
2022/09/19 00:58:31;;;;;;;8.85;1.90;;;12.00;99.90;;;;;;5031059;28;20054;-76
2022/09/19 01:00:58;;;;;;;5.70;2.25;;;12.00;99.90;;;;;;5037779;28;20182;-75
2022/09/19 01:03:25;;;;;;;6.22;1.70;;;12.00;99.90;;;;;;5040727;28;20824;-75
2022/09/19 01:06:09;;;;;;;4.43;2.28;;;12.00;99.90;;;;;;5040063;28;20493;-76
2022/09/19 01:08:45;;;;;;;14.75;3.47;;;12.00;99.90;;;;;;5040156;28;20041;-75
2022/09/19 01:11:31;;;;;;;2.05;1.60;;;12.00;99.90;;;;;;5040945;28;20099;-75
2022/09/19 01:14:39;;;;;;;4.47;1.98;;;11.90;99.90;;;;;;5035470;28;20441;-76
2022/09/19 01:17:11;;;;;;;2.55;1.80;;;11.90;99.90;;;;;;5016302;28;20652;-75
2022/09/19 01:20:26;;;;;;;11.38;3.88;;;11.90;99.90;;;;;;5024987;28;20056;-75
2022/09/19 01:23:16;;;;;;;5.95;2.25;;;11.90;99.90;;;;;;5029244;28;20118;-76
2022/09/19 01:26:00;;;;;;;12.93;2.75;;;11.90;99.90;;;;;;5038697;28;20053;-75
2022/09/19 01:28:32;;;;;;;8.48;2.30;;;11.80;99.90;;;;;;5039474;28;20052;-77
2022/09/19 01:31:19;;;;;;;5.03;1.90;;;11.90;99.90;;;;;;5038747;28;20055;-76
2022/09/19 01:34:02;;;;;;;8.82;2.50;;;11.90;99.90;;;;;;5039291;28;20048;-77
2022/09/19 01:36:36;;;;;;;6.47;3.03;;;12.00;99.90;;;;;;5040243;28;20485;-78
2022/09/19 01:39:04;;;;;;;13.30;2.95;;;11.90;99.90;;;;;;5038880;28;20044;-75
2022/09/19 01:41:30;;;;;;;7.15;2.60;;;12.00;99.90;;;;;;5040841;28;20172;-76
2022/09/19 01:44:05;;;;;;;11.85;3.55;;;12.00;99.90;;;;;;5039729;28;20077;-77
2022/09/19 01:46:35;;;;;;;6.10;1.90;;;12.00;99.90;;;;;;5039395;28;20060;-76
2022/09/19 01:49:25;;;;;;;11.23;2.50;;;12.00;99.90;;;;;;5039966;28;20084;-75
2022/09/19 01:52:08;;;;;;;6.63;2.35;;;12.10;99.90;;;;;;5040580;28;20052;-76
2022/09/19 01:54:34;;;;;;;4.15;2.10;;;12.00;99.90;;;;;;5034770;28;20148;-75
2022/09/19 01:57:50;;;;;;;11.55;2.85;;;12.10;99.90;;;;;;5039987;28;20154;-75
2022/09/19 02:00:21;;;;;;;9.73;2.10;;;12.10;99.90;;;;;;5024306;28;20049;-76
2022/09/19 02:03:09;;;;;;;11.02;3.00;;;12.10;99.90;;;;;;5037936;28;20048;-76
2022/09/19 02:05:46;;;;;;;7.68;2.13;;;12.20;99.90;;;;;;5028897;28;20051;-76
2022/09/19 02:08:17;;;;;;;2.83;2.22;;;12.20;99.90;;;;;;5039481;28;20048;-75
2022/09/19 02:11:09;;;;;;;7.05;2.20;;;12.20;99.90;;;;;;5037838;28;20729;-78
2022/09/19 02:13:36;;;;;;;3.65;1.88;;;12.20;99.90;;;;;;5039666;28;20053;-75
2022/09/19 02:16:11;;;;;;;10.57;2.38;;;12.20;99.90;;;;;;5037582;28;20308;-78
2022/09/19 02:18:48;;;;;;;9.60;2.83;;;12.20;99.90;;;;;;5036721;28;20143;-75
2022/09/19 02:21:21;;;;;;;6.57;2.30;;;12.20;99.90;;;;;;5036254;28;20082;-76
2022/09/19 02:23:52;;;;;;;5.43;2.43;;;12.20;99.90;;;;;;5038988;28;20861;-77
2022/09/19 02:26:21;;;;;;;5.63;1.67;;;12.20;99.90;;;;;;5034143;28;20319;-76
2022/09/19 02:28:54;;;;;;;6.45;2.90;;;12.20;99.90;;;;;;5039355;28;20612;-76
2022/09/19 02:31:26;;;;;;;9.75;2.40;;;12.20;99.90;;;;;;5036089;28;20356;-76
2022/09/19 02:33:54;;;;;;;8.82;2.42;;;12.20;99.90;;;;;;5038932;28;20064;-78
2022/09/19 02:37:01;;;;;;;15.38;3.88;;;12.20;99.90;;;;;;5038261;28;20160;-76
2022/09/19 02:39:44;;;;;;;5.35;2.65;;;12.20;99.90;;;;;;5014543;28;20064;-75
2022/09/19 02:42:15;;;;;;;7.65;2.97;;;12.20;99.90;;;;;;5036789;28;20049;-76
2022/09/19 02:45:07;;;;;;;6.82;3.20;;;12.20;99.90;;;;;;5034386;28;20045;-76
2022/09/19 02:47:48;;;;;;;7.57;2.13;;;12.20;99.90;;;;;;5032835;28;20048;-77
2022/09/19 02:50:27;;;;;;;6.32;2.55;;;12.20;99.90;;;;;;5037579;28;20397;-77
2022/09/19 02:52:57;;;;;;;6.40;2.22;;;12.20;99.90;;;;;;5036256;28;20053;-78
2022/09/19 02:55:30;;;;;;;10.02;2.58;;;12.20;99.90;;;;;;5038607;28;20088;-77
2022/09/19 02:58:02;;;;;;;5.82;3.33;;;12.20;99.90;;;;;;5025362;28;20488;-78
2022/09/19 03:00:29;;;;;;;12.27;2.47;;;12.20;99.90;;;;;;5033225;28;20145;-78
2022/09/19 03:04:11;;;;;;;8.38;2.40;;;12.20;99.90;;;;;;5033342;28;20619;-75
2022/09/19 03:05:54;;;;;;;6.88;2.40;;;12.20;99.90;;;;;;5038045;28;20067;-75
2022/09/19 03:08:24;;;;;;;10.45;2.20;;;12.20;99.90;;;;;;5038101;28;20567;-76
2022/09/19 03:10:54;;;;;;;9.18;2.60;;;12.20;99.90;;;;;;5037612;28;20059;-77
2022/09/19 03:13:23;;;;;;;5.40;2.13;;;12.20;99.90;;;;;;5038646;28;20553;-79
2022/09/19 03:16:01;;;;;;;7.75;2.28;;;12.10;99.90;;;;;;5039119;28;20567;-77
2022/09/19 03:18:29;;;;;;;4.18;2.30;;;12.00;99.90;;;;;;5036719;28;20044;-77
2022/09/19 03:21:01;;;;;;;9.35;1.90;;;12.00;99.90;;;;;;5038547;28;20070;-79
2022/09/19 03:23:33;;;;;;;8.05;2.25;;;12.00;99.90;;;;;;5037482;28;20494;-77
2022/09/19 03:26:01;;;;;;;5.35;1.75;;;11.90;99.90;;;;;;5038794;28;20716;-77
2022/09/19 03:28:27;;;;;;;9.05;1.90;;;11.90;99.90;;;;;;5036797;28;20400;-76
2022/09/19 03:30:56;;;;;;;5.47;1.67;;;11.80;99.90;;;;;;5038983;28;20102;-76
2022/09/19 03:33:22;;;;;;;9.40;3.92;;;11.90;99.90;;;;;;5037391;28;20318;-76
2022/09/19 03:35:50;;;;;;;7.32;2.30;;;11.80;99.90;;;;;;5038619;28;20579;-77
2022/09/19 03:38:16;;;;;;;11.40;2.20;;;11.80;99.90;;;;;;5036594;28;20084;-79
2022/09/19 03:40:42;;;;;;;8.50;1.77;;;11.90;99.90;;;;;;5037433;28;20926;-77
2022/09/19 03:43:07;;;;;;;5.18;1.75;;;11.90;99.90;;;;;;5036483;28;20052;-77
2022/09/19 03:45:33;;;;;;;6.03;1.65;;;11.90;99.90;;;;;;5038931;28;20056;-76
2022/09/19 03:47:59;;;;;;;2.88;1.80;;;11.90;99.90;;;;;;5037948;28;20045;-77
2022/09/19 03:50:24;;;;;;;7.25;1.85;;;11.90;99.90;;;;;;5035101;28;20053;-78
2022/09/19 03:52:50;;;;;;;5.90;2.33;;;11.90;99.90;;;;;;5033897;28;20052;-77
2022/09/19 03:55:17;;;;;;;5.80;2.53;;;11.90;99.90;;;;;;5036961;28;21014;-76
2022/09/19 03:57:42;;;;;;;10.32;2.80;;;11.90;99.90;;;;;;5037659;28;20862;-77
2022/09/19 04:00:09;;;;;;;4.88;2.10;;;11.90;99.90;;;;;;5038684;28;20044;-77
2022/09/19 04:02:35;;;;;;;8.35;2.08;;;11.90;99.90;;;;;;5038014;28;20049;-78
2022/09/19 04:05:02;;;;;;;8.88;3.08;;;12.00;99.90;;;;;;5037144;28;20056;-76
2022/09/19 04:07:28;;;;;;;6.05;1.98;;;12.00;99.90;;;;;;5036119;28;20077;-78
2022/09/19 04:09:56;;;;;;;9.27;2.72;;;11.90;99.90;;;;;;5034113;28;20056;-77
2022/09/19 04:12:23;;;;;;;9.82;2.65;;;12.00;99.90;;;;;;5035455;28;20052;-77
2022/09/19 04:14:49;;;;;;;2.95;2.60;;;12.00;99.90;;;;;;5036525;28;20075;-78
2022/09/19 04:17:15;;;;;;;6.78;2.20;;;12.00;99.90;;;;;;5036477;28;20151;-77
2022/09/19 04:19:42;;;;;;;9.52;2.58;;;12.00;99.90;;;;;;5036748;28;20052;-76
2022/09/19 04:22:09;;;;;;;7.78;2.42;;;11.90;99.90;;;;;;5034993;28;20049;-77
2022/09/19 04:24:35;;;;;;;4.65;2.15;;;11.90;99.90;;;;;;5036655;28;20830;-77
2022/09/19 04:27:02;;;;;;;9.82;2.33;;;11.90;99.90;;;;;;5034596;28;20568;-77
2022/09/19 04:29:28;;;;;;;8.52;2.20;;;11.90;99.90;;;;;;5035289;28;20557;-76
2022/09/19 04:31:54;;;;;;;12.38;3.17;;;11.90;99.90;;;;;;5035156;28;20040;-77
2022/09/19 04:34:20;;;;;;;12.73;2.60;;;12.00;99.90;;;;;;5035500;28;20060;-75
2022/09/19 04:36:47;;;;;;;9.20;2.83;;;12.00;99.90;;;;;;5036226;28;20041;-76
2022/09/19 04:39:12;;;;;;;12.30;2.97;;;12.10;99.90;;;;;;5034467;28;20060;-76
2022/09/19 04:41:38;;;;;;;9.15;3.28;;;12.10;99.90;;;;;;5033084;28;20044;-79
2022/09/19 04:44:06;;;;;;;8.50;2.45;;;12.10;99.90;;;;;;5035963;28;20053;-80
2022/09/19 04:46:32;;;;;;;8.68;2.90;;;12.10;99.90;;;;;;5034795;28;20045;-76
2022/09/19 04:48:59;;;;;;;6.63;2.17;;;12.00;99.90;;;;;;5035719;28;20080;-77
2022/09/19 04:51:27;;;;;;;5.10;2.05;;;12.00;99.90;;;;;;5035723;28;20049;-76
2022/09/19 04:53:53;;;;;;;8.35;1.90;;;12.00;99.90;;;;;;5039182;28;20057;-75
2022/09/19 04:56:20;;;;;;;5.20;1.27;;;12.00;99.90;;;;;;5039943;28;20052;-75
2022/09/19 04:58:46;;;;;;;8.13;1.92;;;12.00;99.90;;;;;;5039272;28;20044;-76
2022/09/19 05:01:14;;;;;;;19.02;3.55;;;12.00;99.90;;;;;;5040065;28;20045;-75
2022/09/19 05:03:43;;;;;;;7.10;2.63;;;12.00;99.90;;;;;;5037810;28;20485;-75
2022/09/19 05:06:10;;;;;;;6.40;2.30;;;12.00;99.90;;;;;;5036757;28;20049;-76
2022/09/19 05:08:37;;;;;;;8.38;2.08;;;12.00;99.90;;;;;;5038302;28;20052;-76
2022/09/19 05:11:06;;;;;;;7.95;2.30;;;12.00;99.90;;;;;;5039877;28;21576;-76
2022/09/19 05:13:34;;;;;;;11.50;3.45;;;12.00;99.90;;;;;;5038370;28;20045;-76
2022/09/19 05:16:01;;;;;;;3.08;1.90;;;12.10;99.90;;;;;;5039324;28;20048;-75
2022/09/19 05:18:28;;;;;;;8.88;2.30;;;12.10;99.90;;;;;;5038093;28;20504;-76
2022/09/19 05:20:54;;;;;;;11.88;2.75;;;12.00;99.90;;;;;;5038748;28;20167;-75
2022/09/19 05:23:23;;;;;;;6.75;2.00;;;12.10;99.90;;;;;;5039462;28;20055;-76
2022/09/19 05:25:51;;;;;;;10.57;3.42;;;12.10;99.90;;;;;;5038304;28;20321;-75
2022/09/19 05:28:18;;;;;;;5.32;2.90;;;12.10;99.90;;;;;;5039089;28;20056;-75
2022/09/19 05:30:52;;;;;;;10.43;2.63;;;12.20;99.90;;;;;;5038015;28;20071;-75
2022/09/19 05:33:23;;;;;;;8.77;2.83;;;12.10;99.90;;;;;;5036603;28;20048;-75
2022/09/19 05:35:50;;;;;;;10.70;3.25;;;12.10;99.90;;;;;;5038642;28;20055;-76
2022/09/19 05:38:16;;;;;;;8.00;3.30;;;12.00;99.90;;;;;;5038055;28;20071;-76
2022/09/19 05:40:42;;;;;;;8.95;2.35;;;12.10;99.90;;;;;;5038552;28;20055;-76
2022/09/19 05:43:08;;;;;;;11.80;2.90;;;12.10;99.90;;;;;;5038843;28;20048;-76
2022/09/19 05:45:34;;;;;;;13.18;4.10;;;12.10;99.90;;;;;;5036277;28;20144;-75
2022/09/19 05:48:01;;;;;;;8.40;2.95;;;12.10;99.90;;;;;;5039305;28;20158;-77
2022/09/19 05:50:28;;;;;;;7.43;3.55;;;12.20;99.90;;;;;;5037922;28;20056;-77
2022/09/19 05:55:38;;;;;;;14.73;3.63;;;12.20;99.90;;;;;;5038576;28;20165;-78
2022/09/19 05:58:06;;;;;;;13.68;3.03;;;12.20;99.90;;;;;;5035353;28;20568;-76
2022/09/19 06:00:31;;;;;;;10.52;3.90;;;12.30;99.90;;;;;;5037442;28;20045;-76
2022/09/19 06:03:01;;;;;;;6.90;2.53;;;12.30;99.90;;;;;;5038992;28;20119;-77
2022/09/19 06:05:32;;;;;;;10.68;2.80;;;12.30;99.90;;;;;;5037297;28;20647;-77
2022/09/19 06:07:58;;;;;;;11.48;2.58;;;12.30;99.90;;;;;;5032918;28;20171;-76
2022/09/19 06:10:26;;;;;;;14.18;3.38;;;12.40;99.90;;;;;;5033790;28;21382;-75
2022/09/19 06:12:55;;;;;;;6.38;2.30;;;12.40;99.90;;;;;;5033503;28;20048;-76
2022/09/19 06:15:21;;;;;;;11.10;2.15;;;12.40;99.90;;;;;;5031551;28;20061;-76
2022/09/19 06:17:55;;;;;;;5.82;2.47;;;12.40;99.90;;;;;;5034791;28;20045;-76
2022/09/19 06:20:21;;;;;;;5.90;2.13;;;12.40;99.90;;;;;;5035580;28;20487;-76
2022/09/19 06:22:47;;;;;;;5.80;1.70;;;12.40;99.90;;;;;;5035441;28;20049;-76
2022/09/19 06:25:13;;;;;;;6.18;2.45;;;12.40;99.90;;;;;;5034512;28;20055;-76
2022/09/19 06:27:41;;;;;;;11.77;3.25;;;12.40;99.90;;;;;;5031701;28;20049;-76
2022/09/19 06:30:07;;;;;;;10.63;3.03;;;12.50;99.90;;;;;;5033608;28;20142;-77
2022/09/19 06:32:33;;;;;;;9.63;2.72;;;12.50;99.90;;;;;;5034165;28;20072;-76
2022/09/19 06:34:59;;;;;;;9.25;3.13;;;12.50;99.90;;;;;;5035116;28;20049;-77
2022/09/19 06:37:25;;;;;;;13.57;2.88;;;12.50;99.90;;;;;;5036304;28;20055;-75
2022/09/19 06:39:51;;;;;;;8.68;2.60;;;12.60;99.90;;;;;;5031858;28;20125;-77
2022/09/19 06:42:17;;;;;;;11.18;2.90;;;12.70;99.90;;;;;;5035470;28;20086;-78
2022/09/19 06:44:42;;;;;;;5.65;2.15;;;12.80;99.90;;;;;;5037476;28;20088;-78
2022/09/19 06:47:08;;;;;;;5.38;1.75;;;12.90;99.90;;;;;;5035921;28;20049;-77
2022/09/19 06:49:34;;;;;;;9.60;2.45;;;13.00;99.90;;;;;;5037610;28;20360;-79
2022/09/19 06:52:01;;;;;;;7.82;3.20;;;12.90;99.90;;;;;;5033819;28;20048;-78
2022/09/19 06:54:26;;;;;;;5.82;2.67;;;13.00;99.90;;;;;;5035759;28;20050;-78
2022/09/19 06:56:52;;;;;;;5.57;1.90;;;13.00;99.90;;;;;;5050941;28;20146;-77
2022/09/19 06:59:18;;;;;;;8.40;1.90;;;13.10;99.90;;;;;;5031411;28;20095;-77
2022/09/19 07:01:45;;;;;;;6.40;2.67;;;13.20;99.90;;;;;;5031296;28;20044;-77
2022/09/19 07:04:11;;;;;;;10.50;2.13;;;13.40;99.90;;;;;;5032986;28;20041;-78
2022/09/19 07:06:37;;;;;;;10.13;2.15;;;13.50;99.90;;;;;;5033603;28;20057;-78
2022/09/19 07:09:04;;;;;;;7.53;2.58;;;13.60;99.90;;;;;;5033592;28;20051;-77
2022/09/19 07:11:31;;;;;;;8.80;2.83;;;13.60;99.90;;;;;;5034359;28;20048;-78
2022/09/19 07:13:57;;;;;;;8.75;3.20;;;13.70;99.90;;;;;;5033456;28;20060;-77
2022/09/19 07:16:23;;;;;;;9.20;2.90;;;13.60;99.90;;;;;;5036316;28;20167;-78
2022/09/19 07:18:48;;;;;;;6.63;2.28;;;13.50;99.90;;;;;;5033670;28;20130;-78
2022/09/19 07:21:14;;;;;;;11.40;2.72;;;13.50;99.90;;;;;;5035585;28;20056;-78
2022/09/19 07:23:40;;;;;;;8.63;2.35;;;13.50;99.90;;;;;;5033984;28;20083;-78
2022/09/19 07:26:06;;;;;;;10.48;3.15;;;13.50;99.90;;;;;;5036796;28;20060;-78
2022/09/19 07:28:32;;;;;;;11.02;2.55;;;13.60;99.90;;;;;;5035231;28;20053;-78
2022/09/19 07:31:00;;;;;;;7.82;3.55;;;13.60;99.90;;;;;;5036851;28;20049;-79
2022/09/19 07:33:28;;;;;;;6.07;1.73;;;13.70;99.90;;;;;;5032792;28;20045;-79
2022/09/19 07:35:55;;;;;;;7.20;2.22;;;14.10;99.90;;;;;;5036209;28;20048;-81
2022/09/19 07:38:22;;;;;;;12.82;3.25;;;14.90;99.90;;;;;;5035486;28;20834;-79
2022/09/19 07:40:48;;;;;;;8.90;3.38;;;15.30;99.90;;;;;;5035103;28;20804;-80
2022/09/19 07:43:16;;;;;;;7.38;2.17;;;15.20;99.90;;;;;;5035208;28;20049;-79
2022/09/19 07:45:47;;;;;;;4.07;3.13;;;15.40;99.90;;;;;;5035021;28;21247;-78
2022/09/19 07:48:14;;;;;;;4.72;2.42;;;16.20;99.90;;;;;;5035946;28;20052;-79
2022/09/19 07:50:40;;;;;;;5.45;2.70;;;17.50;99.90;;;;;;5050173;28;21208;-81
2022/09/19 07:53:14;;;;;;;3.03;1.83;;;17.50;99.90;;;;;;5036267;28;20056;-79
2022/09/19 07:55:43;;;;;;;2.65;1.58;;;16.90;99.90;;;;;;5036030;28;20088;-80
2022/09/19 07:58:11;;;;;;;10.05;1.75;;;16.30;99.90;;;;;;5035843;28;20114;-80
2022/09/19 08:00:39;;;;;;;9.98;2.22;;;15.90;99.90;;;;;;5035293;28;20756;-80
2022/09/19 08:03:10;;;;;;;10.18;2.92;;;16.00;99.90;;;;;;5034356;28;20130;-80
2022/09/19 08:05:39;;;;;;;9.82;2.60;;;16.60;99.90;;;;;;5035866;28;20152;-86
2022/09/19 08:08:07;;;;;;;6.13;2.78;;;16.60;99.90;;;;;;5035189;28;20560;-77
2022/09/19 08:10:33;;;;;;;11.95;2.92;;;16.20;99.90;;;;;;5034149;28;20084;-76
2022/09/19 08:13:02;;;;;;;9.95;2.40;;;15.50;99.90;;;;;;5033674;28;20088;-77
2022/09/19 08:15:28;;;;;;;9.23;1.80;;;15.10;99.90;;;;;;5034533;28;20871;-78
2022/09/19 08:18:12;;;;;;;5.88;2.05;;;14.90;99.90;;;;;;5033451;28;20086;-79
2022/09/19 08:20:38;;;;;;;6.00;2.25;;;14.70;99.90;;;;;;5032860;28;20151;-80
2022/09/19 08:23:07;;;;;;;9.30;2.80;;;14.60;99.90;;;;;;5029718;28;20057;-78
2022/09/19 08:25:35;;;;;;;10.45;2.55;;;14.60;99.90;;;;;;5037117;28;20100;-77
2022/09/19 08:28:05;;;;;;;6.25;2.75;;;14.90;99.90;;;;;;5033595;28;20135;-75
2022/09/19 08:30:33;;;;;;;8.45;2.05;;;15.10;99.90;;;;;;5041087;28;20571;-77
2022/09/19 08:33:01;;;;;;;7.82;2.80;;;15.30;99.90;;;;;;5040528;28;20666;-77
2022/09/19 08:35:29;;;;;;;8.23;1.98;;;15.40;99.90;;;;;;5041378;28;20049;-78
2022/09/19 08:38:00;;;;;;;5.97;2.92;;;15.60;99.90;;;;;;5040187;28;20107;-77
2022/09/19 08:40:30;;;;;;;7.18;2.80;;;16.40;99.90;;;;;;5041758;28;20048;-77
2022/09/19 08:43:06;;;;;;;7.35;2.00;;;17.90;99.90;;;;;;5039626;28;20053;-77
2022/09/19 08:45:56;;;;;;;7.93;3.55;;;19.20;99.90;;;;;;5032819;28;20405;-77
2022/09/19 08:48:32;;;;;;;8.45;2.63;;;20.30;99.90;;;;;;5039067;28;20041;-77
2022/09/19 08:51:06;;;;;;;6.90;2.13;;;21.00;99.90;;;;;;5039586;28;20816;-77
2022/09/19 08:53:40;;;;;;;7.43;2.33;;;21.40;99.90;;;;;;5040940;28;20044;-77
2022/09/19 08:56:06;;;;;;;5.88;2.17;;;22.10;99.90;;;;;;5040812;28;20064;-77
2022/09/19 08:58:38;;;;;;;6.07;2.30;;;22.00;99.90;;;;;;5041020;28;20048;-77
2022/09/19 09:01:07;;;;;;;6.68;2.35;;;22.20;99.90;;;;;;5042011;28;20408;-77
2022/09/19 09:03:47;;;;;;;7.55;2.05;;;22.60;99.90;;;;;;5041347;28;20049;-78
2022/09/19 09:06:25;;;;;;;10.13;2.40;;;21.90;98.00;;;;;;5040754;28;20546;-78
2022/09/19 09:09:17;;;;;;;12.98;2.60;;;22.20;99.90;;;;;;5041009;28;20048;-78
2022/09/19 09:11:58;;;;;;;5.60;2.38;;;22.30;99.90;;;;;;5032517;28;20056;-77
2022/09/19 09:14:50;;;;;;;7.45;2.47;;;21.90;98.30;;;;;;5040079;28;20045;-77
2022/09/19 09:17:47;;;;;;;7.50;2.63;;;21.60;99.90;;;;;;5039624;28;20049;-77
2022/09/19 09:20:37;;;;;;;13.45;2.65;;;22.00;99.90;;;;;;5039264;28;20056;-77
2022/09/19 09:23:07;;;;;;;4.40;2.38;;;22.30;99.90;;;;;;5041846;28;20801;-77
2022/09/19 09:25:37;;;;;;;5.68;2.38;;;22.10;99.40;;;;;;5040152;28;20048;-77
2022/09/19 09:28:26;;;;;;;6.13;2.15;;;22.00;99.90;;;;;;5040820;28;20049;-77
2022/09/19 09:30:57;;;;;;;7.25;2.05;;;21.10;97.30;;;;;;5040276;28;20053;-76
2022/09/19 09:33:28;;;;;;;11.98;2.03;;;21.10;99.90;;;;;;5037859;28;20044;-77
2022/09/19 09:36:10;;;;;;;4.82;2.15;;;21.60;99.90;;;;;;5040765;28;20409;-76
2022/09/19 09:38:47;;;;;;;6.78;1.85;;;20.20;95.00;;;;;;5038930;28;20076;-77
2022/09/19 09:41:47;;;;;;;4.53;1.73;;;19.90;99.90;;;;;;5029843;28;20060;-75
2022/09/19 09:44:13;;;;;;;5.28;1.70;;;20.50;99.90;;;;;;5040648;28;20048;-76
2022/09/19 09:46:52;;;;;;;6.63;2.10;;;20.90;99.90;;;;;;5039652;28;20053;-76
2022/09/19 09:49:21;;;;;;;7.93;2.28;;;21.40;99.90;;;;;;5028942;28;20190;-75
2022/09/19 09:52:14;;;;;;;10.40;2.72;;;21.50;99.90;;;;;;5038823;28;20159;-76
2022/09/19 09:58:58;;;;;;;5.28;1.20;;;18.70;99.90;;;;;;4988883;28;20053;-76
2022/09/19 10:04:45;;;;;;;4.20;1.70;;;15.20;99.90;;;;;;5030932;28;20067;-74
2022/09/19 10:07:26;;;;;;;2.80;1.00;;;14.50;99.90;;;;;;5035232;28;20049;-74
2022/09/19 10:10:14;;;;;;;1.58;0.70;;;14.00;99.90;;;;;;5036061;28;20045;-76
2022/09/19 10:13:02;;;;;;;3.47;0.93;;;13.80;99.90;;;;;;5032713;28;20048;-74
2022/09/19 10:15:31;;;;;;;3.15;0.80;;;13.70;99.90;;;;;;5033017;28;20149;-75
2022/09/19 10:18:06;;;;;;;4.22;1.40;;;13.50;99.90;;;;;;5035036;28;20045;-74
2022/09/19 10:20:38;;;;;;;5.55;1.92;;;13.50;99.90;;;;;;5037090;28;20045;-75
2022/09/19 10:23:12;;;;;;;4.47;1.85;;;13.50;99.90;;;;;;5035809;28;20094;-75
2022/09/19 10:25:37;;;;;;;7.78;1.67;;;13.50;99.90;;;;;;5035346;28;20055;-75
2022/09/19 10:28:24;;;;;;;5.80;2.55;;;13.60;99.90;;;;;;5036120;28;20056;-75
2022/09/19 10:30:56;;;;;;;2.83;1.45;;;13.60;99.90;;;;;;5032423;28;20044;-77
2022/09/19 10:33:48;;;;;;;6.07;1.77;;;13.60;99.90;;;;;;5035741;28;20056;-76
2022/09/19 10:36:25;;;;;;;5.10;1.50;;;13.70;99.90;;;;;;5033603;28;20048;-76
2022/09/19 10:38:56;;;;;;;5.10;1.88;;;13.70;99.90;;;;;;5033500;28;20136;-76
2022/09/19 10:41:23;;;;;;;7.68;2.45;;;13.80;99.90;;;;;;5033719;28;20044;-76
2022/09/19 10:43:54;;;;;;;6.45;1.98;;;13.90;99.90;;;;;;5034462;28;20045;-76
2022/09/19 10:46:35;;;;;;;13.95;2.30;;;14.20;99.90;;;;;;5034405;28;20049;-76
2022/09/19 10:49:05;;;;;;;3.80;1.85;;;14.50;99.90;;;;;;5034166;28;20095;-76
2022/09/19 10:51:41;;;;;;;5.85;2.20;;;14.90;99.90;;;;;;5034813;28;20193;-76
2022/09/19 10:54:12;;;;;;;7.22;2.33;;;15.30;99.90;;;;;;5035397;28;20057;-75
2022/09/19 10:56:41;;;;;;;9.95;2.58;;;15.40;99.90;;;;;;5035605;28;20079;-76
2022/09/19 10:59:18;;;;;;;6.80;2.08;;;15.70;99.90;;;;;;5034583;28;20115;-76
2022/09/19 11:02:16;;;;;;;4.65;1.92;;;15.80;99.90;;;;;;5034864;28;20053;-76
2022/09/19 11:04:59;;;;;;;8.45;2.47;;;15.90;99.90;;;;;;5036584;28;20048;-75
2022/09/19 11:07:29;;;;;;;10.05;2.10;;;15.60;99.90;;;;;;5036094;28;20107;-76
2022/09/19 11:09:59;;;;;;;3.78;1.90;;;15.60;99.90;;;;;;5037332;28;20048;-77
2022/09/19 11:12:27;;;;;;;5.80;1.50;;;15.50;99.90;;;;;;5034999;28;20119;-77
2022/09/19 11:14:57;;;;;;;6.45;1.70;;;15.50;99.90;;;;;;5036201;28;20053;-76
2022/09/19 11:17:31;;;;;;;2.08;1.27;;;15.50;99.90;;;;;;5033676;28;20626;-77
2022/09/19 11:20:18;;;;;;;5.88;1.25;;;15.60;99.90;;;;;;5033199;28;20055;-76
2022/09/19 11:23:05;;;;;;;7.18;2.50;;;15.10;99.90;;;;;;5037144;28;20056;-77
2022/09/19 11:25:41;;;;;;;6.63;2.15;;;15.60;99.90;;;;;;5033351;28;20742;-78
2022/09/19 11:28:19;;;;;;;2.83;1.63;;;15.70;99.90;;;;;;5035017;28;20056;-77
2022/09/19 11:31:05;;;;;;;4.70;1.77;;;15.80;99.90;;;;;;5032935;28;20129;-78
2022/09/19 11:33:52;;;;;;;9.82;2.75;;;16.00;99.90;;;;;;5035426;28;20052;-76
2022/09/19 11:36:59;;;;;;;3.90;1.80;;;15.80;99.90;;;;;;5035139;28;20080;-77
2022/09/19 11:39:43;;;;;;;9.18;2.53;;;16.00;99.90;;;;;;5033758;28;20056;-77
2022/09/19 11:42:23;;;;;;;7.47;1.98;;;16.20;99.90;;;;;;5034578;28;20491;-76
2022/09/19 11:45:17;;;;;;;4.55;2.25;;;16.30;99.90;;;;;;5035755;28;20051;-77
2022/09/19 11:47:45;;;;;;;7.80;2.85;;;16.50;99.90;;;;;;5034240;28;20048;-75
2022/09/19 11:50:23;;;;;;;6.32;2.58;;;16.50;99.90;;;;;;5033444;28;20059;-75
2022/09/19 11:53:13;;;;;;;4.55;2.00;;;16.30;99.90;;;;;;5035394;28;20511;-76
2022/09/19 11:56:01;;;;;;;5.28;1.80;;;16.00;99.90;;;;;;5032996;28;20041;-75
2022/09/19 11:58:44;;;;;;;7.20;2.50;;;16.00;99.90;;;;;;5031970;28;20715;-76
2022/09/19 12:01:35;;;;;;;6.88;2.20;;;16.10;99.90;;;;;;5035775;28;20044;-75
2022/09/19 12:04:13;;;;;;;6.28;2.13;;;16.30;99.90;;;;;;5033942;28;20344;-75
2022/09/19 12:07:16;;;;;;;7.00;3.08;;;16.40;99.90;;;;;;5033734;28;20048;-76
2022/09/19 12:09:59;;;;;;;9.48;3.33;;;16.60;99.90;;;;;;5032316;28;20843;-76
2022/09/19 12:12:30;;;;;;;9.88;2.15;;;16.50;99.90;;;;;;5033656;28;20049;-76
2022/09/19 12:15:06;;;;;;;6.60;2.08;;;16.50;99.90;;;;;;5035020;28;20140;-75
2022/09/19 12:17:42;;;;;;;5.05;1.85;;;16.60;99.90;;;;;;5036450;28;20134;-75
2022/09/19 12:20:21;;;;;;;6.88;1.83;;;16.80;99.90;;;;;;5035468;28;20044;-77
2022/09/19 12:26:06;;;;;;;7.05;2.05;;;16.80;99.90;;;;;;5032649;28;20067;-76
2022/09/19 12:28:42;;;;;;;10.00;2.72;;;16.70;99.90;;;;;;5037128;28;20041;-75
2022/09/19 12:31:13;;;;;;;9.25;2.70;;;16.70;99.90;;;;;;5037866;28;20045;-75
2022/09/19 12:34:07;;;;;;;5.78;1.95;;;16.80;99.90;;;;;;5035633;28;20224;-76
2022/09/19 12:36:38;;;;;;;3.67;1.48;;;16.90;99.90;;;;;;5033864;28;20041;-75
2022/09/19 12:39:16;;;;;;;9.68;2.42;;;17.10;99.90;;;;;;5036825;28;20040;-76
2022/09/19 12:41:57;;;;;;;10.32;2.03;;;17.40;99.90;;;;;;5037553;28;20045;-75
2022/09/19 12:44:34;;;;;;;8.02;2.30;;;17.40;99.90;;;;;;5052515;28;20045;-76
2022/09/19 12:47:22;;;;;;;9.98;3.38;;;17.00;99.90;;;;;;5036590;28;20087;-75
2022/09/19 12:50:03;;;;;;;5.68;2.38;;;16.80;99.90;;;;;;5036956;28;20052;-75
2022/09/19 12:52:36;;;;;;;5.43;1.77;;;16.90;99.90;;;;;;5036408;28;20045;-78
2022/09/19 12:55:22;;;;;;;7.05;2.25;;;17.00;99.90;;;;;;5033257;28;20037;-76
2022/09/19 12:58:16;;;;;;;6.57;2.28;;;17.10;99.90;;;;;;5035754;28;20366;-75
2022/09/19 13:00:45;;;;;;;5.90;1.90;;;17.00;96.80;;;;;;5035173;28;20948;-74
2022/09/19 13:03:40;;;;;;;7.15;1.63;;;16.90;99.50;;;;;;5036031;28;20560;-74
2022/09/19 13:06:18;;;;;;;6.25;1.80;;;17.00;97.80;;;;;;5034216;28;20322;-74
2022/09/19 13:09:09;;;;;;;7.75;1.75;;;17.10;99.90;;;;;;5034654;28;20052;-76
2022/09/19 13:11:59;;;;;;;10.50;3.70;;;17.10;99.90;;;;;;5036513;28;20051;-74
2022/09/19 13:14:56;;;;;;;5.47;1.88;;;16.90;95.50;;;;;;5035669;28;20174;-75
2022/09/19 13:25:57;;;;;;;5.68;1.83;;;16.90;95.60;;;;;;5038779;28;20373;-76
2022/09/19 13:28:26;;;;;;;9.25;2.47;;;16.90;98.10;;;;;;5040880;28;20049;-76
2022/09/19 13:31:00;;;;;;;7.47;2.47;;;16.90;99.20;;;;;;5039124;28;20134;-74
2022/09/19 13:33:34;;;;;;;11.93;3.63;;;16.90;98.70;;;;;;5037082;28;20088;-75
2022/09/19 13:36:09;;;;;;;6.45;2.45;;;17.00;99.90;;;;;;5039810;28;20040;-75
2022/09/19 13:38:49;;;;;;;8.10;2.22;;;16.70;99.90;;;;;;5037788;28;20119;-76
2022/09/19 13:41:26;;;;;;;6.25;2.22;;;16.40;99.90;;;;;;5039390;28;20044;-75